Latest Weather Observations for Snowtown

IDS60801

Issued at 7:31 am CST Tuesday 31 May 2016 (issued every 30 minutes, with the page automatically refreshed every 10 minutes)

About weather observations | Map of weather stations | Latest weather observations for SA | Other Formats
Station Details ID: 021133 Name: RAYVILLE PARK Lat: -33.77 Lon: 138.22 Height: 109.1 m
Data from the previous 72 hours. | See also: Recent months at Snowtown
Date/Time
CST
Temp
°C
App
Temp
°C
Dew
Point
Rel
Hum
%
Delta-T
°C
Wind Press
QNH
hPa
Press
MSL
hPa
Rain
since 9 am
mm
Dir
 
Spd
km/h
Gust
km/h
Spd
kts
Gust
kts
31/07:30am 11.8 6.5 8.3 79 1.7 N 26 32 14 17 1022.8 1022.7 0.2
31/07:00am 11.4 6.1 8.3 81 1.5 N 26 30 14 16 1022.5 1022.4 0.2
31/06:30am 10.9 5.8 7.8 81 1.5 N 24 28 13 15 1022.1 1022.1 0.2
31/06:00am 10.6 6.0 8.0 84 1.3 N 22 26 12 14 1021.9 1021.9 0.2
31/05:30am 10.9 6.7 8.1 83 1.4 N 20 22 11 12 1021.7 1021.7 0.2
31/05:00am 10.2 6.5 8.1 87 1.0 N 17 20 9 11 1021.6 1021.6 0.2
31/04:30am 10.3 6.2 7.9 85 1.2 NNE 19 20 10 11 1021.4 1021.4 0.2
31/04:00am 10.5 6.5 8.1 85 1.2 NNE 19 20 10 11 1021.2 1021.2 0.2
31/03:30am 10.7 6.7 8.3 85 1.2 NNE 19 20 10 11 1021.2 1021.2 0.2
31/03:00am 9.9 6.2 7.8 87 1.0 NNE 17 19 9 10 1021.2 1021.2 0.2
31/02:30am 9.9 6.2 7.8 87 1.0 NNE 17 19 9 10 1021.0 1021.0 0.2
31/02:00am 9.6 5.8 7.5 87 1.0 NNE 17 19 9 10 1021.0 1021.0 0.2
31/01:30am 9.5 5.3 7.4 87 1.0 NNE 19 19 10 10 1021.0 1021.0 0.2
31/01:00am 9.8 5.6 7.4 85 1.1 N 19 20 10 11 1020.9 1020.9 0.2
31/12:30am 10.3 6.5 7.7 84 1.3 N 17 19 9 10 1021.0 1021.0 0.2
31/12:00am 10.5 6.7 7.7 83 1.3 N 17 19 9 10 1021.1 1021.1 0.2
 
Date/Time
CST
Temp
°C
App
Temp
°C
Dew
Point
Rel
Hum
%
Delta-T
°C
Wind Press
QNH
hPa
Press
MSL
hPa
Rain
since 9 am
mm
Dir
 
Spd
km/h
Gust
km/h
Spd
kts
Gust
kts
30/11:30pm 11.4 7.3 7.9 79 1.7 N 19 22 10 12 1021.1 1021.1 0.2
30/11:00pm 12.3 7.7 8.2 76 2.0 N 22 24 12 13 1021.1 1021.1 0.2
30/10:30pm 12.6 8.5 8.5 76 2.0 N 20 26 11 14 1021.1 1021.1 0.2
30/10:00pm 12.8 8.9 8.5 75 2.2 N 19 22 10 12 1021.1 1021.1 0.2
30/09:30pm 13.0 8.9 8.7 75 2.2 N 20 22 11 12 1021.2 1021.2 0.2
30/09:00pm 13.1 9.0 8.8 75 2.2 N 20 24 11 13 1021.0 1021.0 0.2
30/08:30pm 12.5 9.1 9.1 80 1.7 N 17 20 9 11 1020.9 1020.9 0.2
30/08:00pm 12.9 9.6 9.4 79 1.8 N 17 20 9 11 1020.7 1020.7 0.2
30/07:30pm 13.6 10.3 9.6 77 2.1 N 17 20 9 11 1020.6 1020.6 0.2
30/07:00pm 13.5 11.2 10.3 81 1.7 NNE 13 17 7 9 1020.4 1020.4 0.2
30/06:30pm 13.9 11.2 10.3 79 1.9 N 15 19 8 10 1020.0 1020.0 0.2
30/06:00pm 13.8 10.9 9.8 77 2.1 NNE 15 17 8 9 1019.5 1019.5 0.2
30/05:30pm 13.9 11.8 9.7 76 2.2 N 11 13 6 7 1019.2 1019.2 0.2
30/05:00pm 14.9 12.8 9.9 72 2.6 N 11 13 6 7 1019.0 1019.0 0.2
30/04:30pm 16.3 13.4 9.7 65 3.5 NNW 15 17 8 9 1018.6 1018.6 0.2
30/04:00pm 16.7 13.7 9.4 62 3.8 NNW 15 22 8 12 1018.2 1018.2 0.2
30/03:30pm 16.9 13.7 9.8 63 3.7 NNW 17 24 9 13 1018.0 1018.0 0.2
30/03:00pm 17.2 13.4 9.1 59 4.2 N 19 26 10 14 1017.9 1017.9 0.2
30/02:30pm 17.3 12.4 8.4 56 4.6 NNW 24 35 13 19 1017.8 1017.8 0.2
30/02:00pm 17.2 12.7 9.9 62 3.9 NNW 24 35 13 19 1017.9 1017.9 0.2
30/01:30pm 17.8 13.7 10.2 61 4.1 N 22 33 12 18 1018.1 1018.1 0.2
30/01:00pm 17.3 12.5 10.2 63 3.8 N 26 32 14 17 1018.3 1018.3 0.2
30/12:30pm 16.8 10.9 10.4 66 3.4 N 32 39 17 21 1018.5 1018.5 0.2
30/12:00pm 16.9 11.4 10.5 66 3.4 N 30 35 16 19 1018.9 1018.9 0.2
30/11:30am 15.7 10.7 11.1 74 2.5 N 28 32 15 17 1019.2 1019.2 0.2
30/11:00am 13.7 8.0 9.7 77 2.1 N 30 37 16 20 1019.5 1019.5 0.2
30/10:30am 14.0 10.0 10.4 79 1.9 N 22 28 12 15 1020.0 1020.0 0.2
30/10:00am 12.8 7.4 9.6 81 1.6 N 28 33 15 18 1019.9 1019.9 0.2
30/09:30am 12.1 7.4 9.1 82 1.5 N 24 30 13 16 1019.9 1019.9 0.0
30/09:00am 11.3 7.4 8.7 84 1.3 N 19 20 10 11 1019.8 1019.8 1.6
30/08:30am 11.0 7.0 8.4 84 1.3 N 19 22 10 12 1019.6 1019.6 1.6
30/08:00am 10.4 6.1 8.0 85 1.2 N 20 22 11 12 1019.3 1019.3 1.6
30/07:30am 10.5 5.9 8.1 85 1.2 NNE 22 30 12 16 1019.0 1019.0 1.6
30/07:00am 10.6 4.4 7.8 83 1.4 N 30 39 16 21 1018.7 1018.7 0.2
30/06:30am 10.7 5.2 7.4 80 1.6 N 26 32 14 17 1018.2 1018.2 0.0
30/06:00am 10.6 5.0 7.3 80 1.6 N 26 32 14 17 1018.0 1018.0 0.0
30/05:30am 10.4 5.2 7.3 81 1.5 N 24 30 13 16 1017.8 1017.8 0.0
30/05:00am 10.4 5.6 7.3 81 1.5 N 22 28 12 15 1017.6 1017.6 0.0
30/04:30am 10.3 4.3 7.2 81 1.5 N 28 32 15 17 1017.5 1017.5 0.0
30/04:00am 10.3 5.2 7.5 83 1.3 N 24 28 13 15 1017.6 1017.6 0.0
30/03:30am 10.0 5.2 7.3 83 1.3 N 22 26 12 14 1017.6 1017.6 0.0
30/03:00am 10.3 5.1 7.2 81 1.5 N 24 30 13 16 1017.8 1017.8 0.0
30/02:30am 10.3 5.0 7.0 80 1.6 N 24 28 13 15 1017.8 1017.8 0.0
30/02:00am 9.8 4.5 6.7 81 1.5 N 24 28 13 15 1017.8 1017.8 0.0
30/01:30am 9.7 4.4 6.8 82 1.4 N 24 28 13 15 1017.7 1017.7 0.0
30/01:00am 10.5 5.2 7.0 79 1.7 N 24 30 13 16 1017.8 1017.8 0.0
30/12:30am 10.0 5.5 7.1 82 1.4 N 20 26 11 14 1017.9 1017.9 0.0
30/12:00am 8.9 4.5 6.7 86 1.0 NNE 19 20 10 11 1018.0 1018.0 0.0
 
Date/Time
CST
Temp
°C
App
Temp
°C
Dew
Point
Rel
Hum
%
Delta-T
°C
Wind Press
QNH
hPa
Press
MSL
hPa
Rain
since 9 am
mm
Dir
 
Spd
km/h
Gust
km/h
Spd
kts
Gust
kts
29/11:30pm 9.0 5.1 7.0 87 0.9 N 17 20 9 11 1018.2 1018.2 0.0
29/11:00pm 8.5 4.5 6.6 88 0.9 N 17 19 9 10 1018.3 1018.3 0.0
29/10:30pm 8.3 4.7 6.6 89 0.8 NNE 15 17 8 9 1018.5 1018.5 0.0
29/10:00pm 8.4 5.2 6.9 90 0.7 N 13 13 7 7 1018.5 1018.5 0.0
29/09:30pm 8.7 5.1 6.7 87 0.9 N 15 17 8 9 1018.6 1018.6 0.0
29/09:00pm 8.8 5.5 6.4 85 1.1 N 13 15 7 8 1018.6 1018.6 0.0
29/08:30pm 8.5 4.9 6.6 88 0.9 N 15 17 8 9 1018.5 1018.5 0.0
29/08:00pm 8.3 5.2 7.1 92 0.6 N 13 15 7 8 1018.6 1018.6 0.0
29/07:30pm 8.7 6.2 6.7 87 0.9 NE 9 11 5 6 1018.4 1018.4 0.0
29/07:00pm 9.7 6.8 6.4 80 1.5 NW 11 15 6 8 1018.3 1018.3 0.0
29/06:30pm 10.6 7.5 7.3 80 1.6 NW 13 15 7 8 1018.0 1018.0 0.0
29/06:00pm 11.0 8.4 7.7 80 1.6 NNW 11 15 6 8 1017.6 1017.6 0.0
29/05:30pm 12.9 10.1 8.4 74 2.2 NNW 13 15 7 8 1017.3 1017.3 0.0
29/05:00pm 14.8 11.7 9.0 68 3.0 N 15 17 8 9 1017.0 1017.0 0.0
29/04:30pm 15.2 11.6 8.2 63 3.5 N 17 19 9 10 1017.0 1017.0 0.0
29/04:00pm 16.0 11.7 7.7 58 4.2 N 20 26 11 14 1017.0 1017.0 0.0
29/03:30pm 16.8 12.5 7.7 55 4.6 NNW 20 28 11 15 1016.9 1016.9 0.0
29/03:00pm 17.1 12.7 7.5 53 4.8 NNW 20 26 11 14 1016.9 1016.9 0.0
29/02:30pm 16.4 12.4 8.9 61 3.9 NNW 20 28 11 15 1017.0 1017.0 0.0
29/02:00pm 16.1 12.2 8.8 62 3.8 N 19 24 10 13 1017.3 1017.3 0.0
29/01:30pm 16.2 12.2 9.2 63 3.6 N 20 30 11 16 1017.6 1017.6 0.0
29/01:00pm 15.6 11.9 9.3 66 3.3 N 19 28 10 15 1017.9 1017.9 0.0
29/12:30pm 15.1 10.5 9.5 69 2.9 NNE 24 28 13 15 1018.2 1018.2 0.0
29/12:00pm 14.5 9.8 9.1 70 2.8 N 24 30 13 16 1018.7 1018.7 0.0
29/11:30am 14.6 9.1 9.0 69 2.9 N 28 35 15 19 1019.0 1019.0 0.0
29/11:00am 13.6 7.2 8.4 71 2.6 N 32 39 17 21 1019.2 1019.2 0.0
29/10:30am 13.0 7.3 8.3 73 2.3 NNE 28 33 15 18 1019.4 1019.4 0.0
29/10:00am 12.3 7.3 8.2 76 2.0 NNE 24 30 13 16 1019.4 1019.4 0.0
29/09:30am 11.4 6.4 8.1 80 1.6 NNE 24 28 13 15 1019.4 1019.4 0.0
29/09:00am 10.9 5.8 7.8 81 1.5 N 24 28 13 15 1019.4 1019.4 0.0
29/08:30am 10.3 5.5 7.5 83 1.3 N 22 26 12 14 1019.2 1019.2 0.0
29/08:00am 8.8 6.2 7.7 93 0.5 NE 11 15 6 8 1019.0 1019.0 0.0
29/07:30am 8.2 5.4 7.0 92 0.6 NE 11 13 6 7 1018.9 1018.9 0.0
29/07:00am 7.8 4.9 6.6 92 0.6 ENE 11 11 6 6 1018.9 1018.9 0.0
29/06:30am 8.0 5.5 6.5 90 0.7 NE 9 13 5 7 1018.6 1018.6 0.0
29/06:00am 8.2 5.0 6.7 90 0.7 NNE 13 17 7 9 1018.5 1018.5 0.0
29/05:30am 7.6 3.9 6.2 91 0.6 NNE 15 19 8 10 1018.4 1018.4 0.0
29/05:00am 7.3 3.2 6.1 92 0.5 N 17 19 9 10 1018.2 1018.2 0.0
29/04:30am 6.6 2.4 5.6 93 0.4 NNE 17 19 9 10 1018.2 1018.2 0.0
29/04:00am 6.2 2.8 5.8 97 0.2 NNW 13 17 7 9 1018.4 1018.4 0.0
29/03:30am 4.8 1.8 3.9 94 0.4 WNW 9 11 5 6 1018.5 1018.5 0.0
29/03:00am 5.3 2.4 4.6 95 0.3 WNW 9 9 5 5 1018.3 1018.3 0.0
29/02:30am 5.1 2.5 4.1 93 0.4 WNW 7 9 4 5 1018.3 1018.3 0.0
29/02:00am 5.8 2.9 4.8 93 0.4 WNW 9 11 5 6 1018.5 1018.5 0.0
29/01:30am 5.6 2.8 5.0 96 0.3 W 9 13 5 7 1018.5 1018.5 0.0
29/01:00am 5.5 4.3 4.8 95 0.3 CALM 0 0 0 0 1018.5 1018.5 0.0
29/12:30am 5.7 3.8 5.0 95 0.3 WSW 4 6 2 3 1018.5 1018.5 0.0
29/12:00am 5.7 3.4 4.8 94 0.4 WSW 6 9 3 5 1018.6 1018.6 0.0
 
Date/Time
CST
Temp
°C
App
Temp
°C
Dew
Point
Rel
Hum
%
Delta-T
°C
Wind Press
QNH
hPa
Press
MSL
hPa
Rain
since 9 am
mm
Dir
 
Spd
km/h
Gust
km/h
Spd
kts
Gust
kts
28/11:30pm 6.1 3.9 5.2 94 0.4 WSW 6 7 3 4 1018.7 1018.7 0.0
28/11:00pm 6.4 5.4 5.5 94 0.4 CALM 0 0 0 0 1018.8 1018.8 0.0
28/10:30pm 7.3 5.3 6.1 92 0.5 WSW 6 6 3 3 1019.0 1019.0 0.0
28/10:00pm 7.9 6.0 6.8 93 0.5 WSW 6 7 3 4 1019.0 1019.0 0.0
28/09:30pm 8.4 6.4 7.0 91 0.7 WSW 7 9 4 5 1019.0 1019.0 0.0
28/09:00pm 8.9 8.4 7.7 92 0.6 CALM 0 0 0 0 1019.1 1019.1 0.0
28/08:30pm 8.9 6.7 7.7 92 0.6 WSW 9 11 5 6 1019.3 1019.3 0.0
28/08:00pm 8.5 7.0 6.8 89 0.8 WSW 4 7 2 4 1019.1 1019.1 0.0
28/07:30pm 9.1 6.4 7.2 88 0.9 WSW 11 13 6 7 1018.8 1018.8 0.0
28/07:00pm 9.5 7.5 7.1 85 1.1 SSE 7 11 4 6 1018.5 1018.5 0.0
28/06:30pm 9.9 7.7 7.7 86 1.1 SSE 9 9 5 5 1018.2 1018.2 0.0
28/06:00pm 10.5 8.3 7.7 83 1.4 SSE 9 9 5 5 1018.0 1018.0 0.0
28/05:30pm 12.1 10.2 7.4 73 2.3 SSE 7 9 4 5 1017.6 1017.6 0.0
28/05:00pm 13.4 11.3 8.3 71 2.6 SSE 9 11 5 6 1017.4 1017.4 0.0
28/04:30pm 14.9 11.9 7.7 62 3.6 SSE 13 17 7 9 1017.3 1017.3 0.0
28/04:00pm 15.4 12.4 7.7 60 3.9 S 13 17 7 9 1017.2 1017.2 0.0
28/03:30pm 15.8 12.9 8.1 60 3.9 S 13 20 7 11 1016.9 1016.9 0.0
28/03:00pm 15.8 13.1 7.3 57 4.2 SSE 11 17 6 9 1016.7 1016.7 0.0
28/02:30pm 15.7 12.7 7.5 58 4.1 SSE 13 32 7 17 1016.5 1016.5 0.0
28/02:00pm 15.8 11.5 7.8 59 4.0 SE 20 26 11 14 1016.3 1016.3 0.0
28/01:30pm 15.4 11.1 7.7 60 3.9 SE 20 28 11 15 1016.4 1016.4 0.0
28/01:00pm 15.1 11.3 7.6 61 3.7 SE 17 24 9 13 1016.5 1016.5 0.0
28/12:30pm 15.1 10.3 9.0 67 3.1 SE 24 28 13 15 1016.4 1016.4 0.0
28/12:00pm 14.9 11.0 9.3 69 2.9 SSE 20 32 11 17 1016.7 1016.7 0.0
28/11:30am 14.5 9.9 9.7 73 2.5 SSE 24 30 13 16 1016.8 1016.8 0.0
28/11:00am 14.4 9.7 9.2 71 2.7 SSE 24 30 13 16 1017.0 1017.0 0.0
28/10:30am 14.0 9.0 9.4 74 2.4 SSE 26 32 14 17 1017.2 1017.2 0.0
28/10:00am 14.2 10.6 10.4 78 2.0 S 20 26 11 14 1016.9 1016.9 0.0
28/09:30am 13.3 9.8 11.0 86 1.2 SSW 20 28 11 15 1016.4 1016.4 0.0
28/09:00am 12.7 9.8 10.9 89 0.9 SSW 17 24 9 13 1015.8 1015.7 11.0
28/08:30am 11.3 8.2 10.2 93 0.6 SW 17 30 9 16 1015.7 1015.6 11.0
28/08:00am 11.0 6.7 9.4 90 0.8 WSW 22 30 12 16 1015.2 1015.1 11.0

Other Formats:

Comma delimited format used in spreadsheet applications
http://www.bom.gov.au/fwo/IDS60801/IDS60801.95670.axf

JavaScript Object Notation format (JSON) in row-major order
http://www.bom.gov.au/fwo/IDS60801/IDS60801.95670.json